• Join FlightAware (Why Join?)
  • Login
  • US Flag 
06:43PM EST


 

Airport Tracker/Info


-or-


 

Live Flight TrackerFlight Track Log ✈ SCX8700 ✈ 01-Apr-2014 ✈ KMSP - KTOL

Flight Track Log - Related Links

Times and Time Zones

All times are in EDT time to prevent confusion due to time zone crossing. See the SCX8700 flight status page for this flight to view local times or setup timezone preferences in your user account.

Time Position Orientation Groundspeed Altitude Reporting Facility
EDT Latitude Longitude Course Direction KTS MPH feet Rate Location/Type
08:51AM 44.9333 -93.2333 10° North 182 209 4,400  Level Minneapolis TRACON
08:52AM 45.0000 -93.2167 10° North 263 303 7,200 2,820 Climbing Minneapolis TRACON
08:53AM 44.9547 -93.0722 114° Southeast 318 366 10,900 2,880 Climbing Minneapolis Center
08:54AM 44.8994 -92.9508 123° Southeast 362 417 14,000 3,240 Climbing Minneapolis Center
08:55AM 44.8422 -92.8253 123° Southeast 375 432 17,600 3,300 Climbing Minneapolis Center
08:56AM 44.7819 -92.6953 123° Southeast 389 448 20,800 2,640 Climbing Minneapolis Center
08:57AM 44.7197 -92.5592 123° Southeast 405 466 23,100 2,340 Climbing Minneapolis Center
08:58AM 44.6558 -92.4217 123° Southeast 415 478 25,600 2,340 Climbing Minneapolis Center
08:59AM 44.5917 -92.2839 123° Southeast 418 481 28,000 2,040 Climbing Minneapolis Center
09:00AM 44.5233 -92.1439 124° Southeast 430 495 29,900 1,680 Climbing Minneapolis Center
09:01AM 44.4489 -92.0011 126° Southeast 446 513 31,500 1,620 Climbing Minneapolis Center
09:03AM 44.3572 -91.8217 126° Southeast 470 541 33,300 1,740 Climbing Minneapolis Center
09:04AM 44.2981 -91.6550 116° Southeast 478 550 35,100 1,560 Climbing Minneapolis Center
09:05AM 44.2342 -91.4906 118° Southeast 479 551 36,600 1,260 Climbing Minneapolis Center
09:06AM 44.1692 -91.3253 119° Southeast 484 557 37,800 1,020 Climbing Minneapolis Center
09:07AM 44.1031 -91.1531 118° Southeast 485 558 38,800 1,020 Climbing Minneapolis Center
09:08AM 44.0378 -90.9856 118° Southeast 490 564 40,000 1,020 Climbing Minneapolis Center
09:09AM 43.9731 -90.8206 119° Southeast 490 564 41,000 480 Climbing Minneapolis Center
09:10AM 43.9103 -90.6581 118° Southeast 484 557 41,000  Level Minneapolis Center
09:10AM 43.8667 -90.5683 124° Southeast 487 560 41,000  Level Chicago Center
09:11AM 43.7836 -90.4317 130° Southeast 470 541 41,000  Level Chicago Center
09:12AM 43.6872 -90.2706 130° Southeast 467 537 41,000  Level Chicago Center
09:13AM 43.6008 -90.1317 131° Southeast 476 548 41,000  Level Chicago Center
09:14AM 43.5172 -89.9947 130° Southeast 472 543 41,000  Level Chicago Center
09:15AM 43.4342 -89.8569 130° Southeast 471 542 41,000  Level Chicago Center
09:16AM 43.3325 -89.6964 131° Southeast 468 539 41,000  Level Chicago Center
09:18AM 43.2506 -89.5628 130° Southeast 464 534 41,000  Level Chicago Center
09:19AM 43.1700 -89.4303 130° Southeast 462 532 41,000  Level Chicago Center
09:20AM 43.0858 -89.2983 131° Southeast 460 529 41,000  Level Chicago Center
09:21AM 43.0031 -89.1658 130° Southeast 460 529 41,000  Level Chicago Center
09:22AM 42.9036 -89.0078 131° Southeast 461 531 41,000 -480 Level Chicago Center
09:23AM 42.8197 -88.8769 131° Southeast 462 532 40,100 -900 Descending Chicago Center
09:24AM 42.7367 -88.7469 131° Southeast 460 529 39,200 -900 Descending Chicago Center
09:25AM 42.6525 -88.6128 130° Southeast 465 535 38,300 -960 Descending Chicago Center
09:26AM 42.5644 -88.4758 131° Southeast 480 552 37,300 -960 Descending Chicago Center
09:27AM 42.4772 -88.3414 131° Southeast 480 552 36,400 -1,020 Descending Chicago Center
09:28AM 42.3706 -88.1800 132° Southeast 480 552 35,200 -720 Descending Chicago Center
09:29AM 42.2839 -88.0453 131° Southeast 480 552 35,000 -120 Descending Chicago Center
09:30AM 42.2197 -87.8897 119° Southeast 493 567 35,000  Level Chicago Center
09:31AM 42.2100 -87.7017 94° East 503 579 35,000 -540 Level Chicago Center
09:32AM 42.1994 -87.5178 94° East 501 577 33,900 -1,140 Descending Chicago Center
09:33AM 42.1881 -87.3036 94° East 485 558 32,700 -1,080 Descending Chicago Center
09:34AM 42.1772 -87.1306 95° East 472 543 31,700 -1,020 Descending Chicago Center
09:35AM 42.1658 -86.9572 95° East 468 539 30,700 -1,020 Descending Chicago Center
09:36AM 42.1561 -86.7881 94° East 461 531 29,700 -1,020 Descending Chicago Center
09:37AM 42.1447 -86.6194 95° East 455 524 28,700 -1,020 Descending Chicago Center
09:38AM 42.1347 -86.4514 95° East 455 524 27,700 -1,020 Descending Chicago Center
09:39AM 42.1239 -86.2897 95° East 438 504 26,700 -1,020 Descending Chicago Center
09:40AM 42.1133 -86.1311 95° East 430 495 25,700 -1,080 Descending Chicago Center
09:41AM 42.1006 -85.9517 95° East 427 491 24,600 -1,080 Descending Chicago Center
09:42AM 42.0906 -85.7953 95° East 426 490 23,600 -1,020 Descending Chicago Center
09:43AM 42.0794 -85.6461 96° East 408 470 22,600 -1,080 Descending Chicago Center
09:44AM 42.0667 -85.4617 95° East 407 468 21,400 -1,500 Descending Chicago Center
09:45AM 42.0569 -85.3183 95° East 400 460 19,600 -1,800 Descending Chicago Center
09:46AM 42.0375 -85.1786 101° East 381 438 17,700 -1,260 Descending Chicago Center
09:47AM 41.9986 -85.0561 113° Southeast 369 425 17,000 -1,200 Descending Chicago Center
09:48AM 41.9750 -84.9333 104° East 363 418 15,300 -1,560 Descending Chicago Center
09:49AM 41.9322 -84.7911 112° Southeast 344 396 13,800 -1,260 Descending Chicago Center
09:51AM 41.8925 -84.6764 115° Southeast 340 391 12,800 -1,020 Descending Chicago Center
09:51AM 41.8611 -84.5894 116° Southeast 333 383 12,000 -1,020 Descending Cleveland Center
09:52AM 41.8242 -84.4797 114° Southeast 324 373 11,000 -960 Descending Cleveland Center
09:53AM 41.7853 -84.3703 115° Southeast 325 374 10,100 -1,020 Descending Cleveland Center
09:54AM 41.7500 -84.2689 115° Southeast 304 350 9,000 -1,260 Descending Cleveland Center
09:55AM 41.7117 -84.1606 115° Southeast 285 328 7,600 -1,440 Descending Cleveland Center
09:56AM 41.6792 -84.0678 115° Southeast 280 322 6,100 -1,380 Descending Cleveland Center
09:58AM 41.6469 -83.9778 116° Southeast 271 312 4,800 -1,380 Descending Cleveland Center
09:59AM 41.6406 -83.8811 95° East 282 325 3,300 -900 Descending Cleveland Center
10:00AM 41.6725 -83.7892 65° Northeast 278 320 3,000 -300 Descending Cleveland Center
10:01AM 41.6678 -83.7117 95° East 223 257 2,800 -360 Descending Cleveland Center
10:02AM 41.6297 -83.6967 164° South 172 198 2,300 -540 Descending Cleveland Center
10:03AM 41.6119 -83.7342 238° Southwest 146 168 1,700 -360 Descending Cleveland Center
10:04AM 41.5975 -83.7678 240° Southwest 138 159 1,600 -120 Descending Cleveland Center